Time;durP1;ratioP1;P1;durP2;ratioP2;P2;SDS_P1;SDS_P2;PMS_P1;PMS_P2;Temp;Humidity;BMP_temperature;BMP_pressure;BME280_temperature;BME280_humidity;BME280_pressure;Samples;Min_cycle;Max_cycle;Signal;HPM_P1;HPM_P2
2023/02/05 04:33:51;;;;;;;0.70;0.52;;;;;;;-0.77;77.31;102069.50;5129303;27;20386;-93
2023/02/05 04:36:17;;;;;;;0.68;0.65;;;;;;;-0.88;78.04;102084.53;5094645;28;20031;-91
2023/02/05 04:38:42;;;;;;;1.15;0.93;;;;;;;-0.90;78.78;102093.78;5094516;28;20034;-92
2023/02/05 04:41:08;;;;;;;0.43;0.43;;;;;;;-1.05;79.10;102088.38;5094483;28;20472;-92
2023/02/05 04:43:33;;;;;;;1.00;1.00;;;;;;;-1.10;79.75;102078.94;5094596;28;20032;-93
2023/02/05 04:46:06;;;;;;;1.33;0.52;;;;;;;-1.15;79.07;102101.69;5094545;28;20080;-93
2023/02/05 04:48:32;;;;;;;0.52;0.52;;;;;;;-1.19;79.92;102099.88;5094920;28;20034;-94
2023/02/05 04:50:57;;;;;;;3.25;1.10;;;;;;;-1.26;80.37;102100.59;5094312;28;20031;-93
2023/02/05 04:53:23;;;;;;;0.65;0.65;;;;;;;-1.29;80.69;102100.50;5094080;28;20113;-94
2023/02/05 04:55:48;;;;;;;0.82;0.82;;;;;;;-1.28;80.75;102107.28;5094422;28;20030;-91
2023/02/05 04:58:14;;;;;;;2.47;1.38;;;;;;;-1.35;80.43;102108.00;5094043;28;20429;-93
2023/02/05 05:00:39;;;;;;;0.68;0.63;;;;;;;-1.38;81.75;102107.91;5094192;28;20027;-92
2023/02/05 05:03:05;;;;;;;0.50;0.50;;;;;;;-1.38;81.74;102118.91;5094447;28;20032;-93
2023/02/05 05:05:30;;;;;;;2.88;1.63;;;;;;;-1.43;81.36;102109.50;5094154;28;20027;-91
2023/02/05 05:07:58;;;;;;;1.55;1.45;;;;;;;-1.41;81.61;102120.53;5093892;28;20024;-93
2023/02/05 05:10:23;;;;;;;1.35;1.25;;;;;;;-1.31;81.75;102125.88;5094198;28;20027;-92
2023/02/05 05:12:48;;;;;;;0.98;0.70;;;;;;;-1.38;81.47;102129.06;5094012;28;20030;-93
2023/02/05 05:15:14;;;;;;;1.08;0.55;;;;;;;-1.43;82.08;102124.72;5093954;28;20038;-92
2023/02/05 05:17:39;;;;;;;3.15;0.93;;;;;;;-1.35;81.46;102146.06;5094082;28;20035;-93
2023/02/05 05:20:05;;;;;;;1.08;0.82;;;;;;;-1.32;81.35;102143.59;5094098;28;20027;-93
2023/02/05 05:22:31;;;;;;;1.85;1.55;;;;;;;-1.29;81.34;102152.13;5110655;28;20491;-94
2023/02/05 05:24:56;;;;;;;0.38;0.38;;;;;;;-1.38;81.20;102140.91;5093778;28;20027;-92
2023/02/05 05:27:23;;;;;;;0.80;0.80;;;;;;;-1.37;81.17;102158.75;5093719;28;20031;-92
2023/02/05 05:29:49;;;;;;;0.45;0.45;;;;;;;-1.27;81.62;102157.28;5094503;28;20111;-92
2023/02/05 05:32:15;;;;;;;0.75;0.70;;;;;;;-1.33;81.59;102155.44;5110605;28;20048;-92
2023/02/05 05:34:40;;;;;;;0.90;0.88;;;;;;;-1.22;81.53;102173.47;5097865;28;20081;-94
2023/02/05 05:37:06;;;;;;;0.82;0.80;;;;;;;-1.41;80.75;102176.38;5079663;28;20104;-91
2023/02/05 05:44:59;;;;;;;1.30;0.75;;;;;;;-1.48;82.05;102193.13;5113795;28;20035;-93
2023/02/05 05:47:24;;;;;;;0.98;0.85;;;;;;;-1.49;81.42;102189.72;5079897;28;20024;-92
2023/02/05 05:49:50;;;;;;;1.98;1.58;;;;;;;-1.43;81.90;102201.72;5079886;28;20028;-93
2023/02/05 05:52:15;;;;;;;0.88;0.85;;;;;;;-1.42;81.20;102202.59;5079482;28;20097;-93
2023/02/05 05:54:41;;;;;;;1.38;0.70;;;;;;;-1.36;81.31;102213.78;5079793;28;20042;-93
2023/02/05 05:57:06;;;;;;;0.95;0.93;;;;;;;-1.30;81.61;102224.06;5096570;28;20084;-93
2023/02/05 05:59:32;;;;;;;0.77;0.73;;;;;;;-1.23;81.62;102220.00;5079685;28;20027;-94
2023/02/05 06:01:58;;;;;;;2.97;2.47;;;;;;;-1.09;80.72;102231.34;5079580;28;20067;-93
2023/02/05 06:04:24;;;;;;;1.77;1.30;;;;;;;-1.13;80.07;102227.03;5079750;28;20490;-93
2023/02/05 06:06:49;;;;;;;0.95;0.82;;;;;;;-1.17;80.25;102215.94;5079362;28;20042;-93
2023/02/05 06:09:15;;;;;;;4.57;1.80;;;;;;;-1.30;80.13;102229.13;5079570;28;20026;-92
2023/02/05 06:11:40;;;;;;;0.45;0.35;;;;;;;-1.32;80.37;102213.00;5096243;28;20033;-94
2023/02/05 06:14:06;;;;;;;1.75;1.08;;;;;;;-1.27;79.74;102225.84;5079363;28;20052;-94
2023/02/05 06:16:31;;;;;;;0.93;0.85;;;;;;;-1.25;79.63;102232.66;5079296;28;20026;-94
2023/02/05 06:18:57;;;;;;;3.00;1.80;;;;;;;-1.24;79.37;102233.53;5079370;28;20061;-92
2023/02/05 06:21:22;;;;;;;1.33;0.85;;;;;;;-1.20;79.94;102253.09;5079610;28;20027;-92
2023/02/05 06:23:48;;;;;;;2.33;1.42;;;;;;;-1.26;79.77;102246.19;5079453;28;20034;-93
2023/02/05 06:26:13;;;;;;;2.30;0.77;;;;;;;-1.27;78.99;102241.06;5079302;28;20031;-92
2023/02/05 06:28:39;;;;;;;2.75;1.55;;;;;;;-1.19;78.65;102252.25;5079065;28;20100;-93
2023/02/05 06:31:04;;;;;;;2.78;2.17;;;;;;;-1.20;78.62;102261.56;5079067;28;20031;-93
2023/02/05 06:33:30;;;;;;;3.28;2.13;;;;;;;-1.07;78.90;102282.22;5078652;28;20040;-94
2023/02/05 06:35:55;;;;;;;2.63;1.98;;;;;;;-1.03;80.14;102277.22;5079115;28;20027;-94
2023/02/05 06:38:21;;;;;;;1.95;1.52;;;;;;;-0.88;80.01;102292.00;5078867;28;20031;-92
2023/02/05 06:40:47;;;;;;;0.85;0.85;;;;;;;-0.88;78.04;102299.63;5078815;28;20024;-92
2023/02/05 06:43:12;;;;;;;2.55;1.42;;;;;;;-0.80;79.17;102304.88;5078927;28;20038;-93
2023/02/05 06:45:38;;;;;;;1.63;1.38;;;;;;;-0.76;80.00;102316.84;5077753;28;20023;-93
2023/02/05 06:48:03;;;;;;;1.10;0.98;;;;;;;-0.81;80.97;102318.41;5078584;28;20023;-94
2023/02/05 06:50:29;;;;;;;2.05;1.38;;;;;;;-0.82;81.04;102309.06;5078976;28;20031;-94
2023/02/05 06:52:54;;;;;;;0.98;0.77;;;;;;;-0.77;81.65;102307.53;5078515;28;20069;-93
2023/02/05 06:55:20;;;;;;;3.03;1.33;;;;;;;-0.62;80.85;102318.03;5095547;28;20027;-93
2023/02/05 06:57:45;;;;;;;2.33;2.13;;;;;;;-0.56;80.45;102325.81;5078443;28;20023;-93
2023/02/05 07:00:11;;;;;;;0.93;0.82;;;;;;;-0.66;78.77;102311.16;5078486;28;20130;-93
2023/02/05 07:02:37;;;;;;;4.03;1.58;;;;;;;-0.54;77.62;102320.75;5095011;28;20486;-93
2023/02/05 07:05:02;;;;;;;2.47;1.98;;;;;;;-0.55;77.97;102327.53;5078477;28;20028;-93
2023/02/05 07:07:27;;;;;;;1.30;1.20;;;;;;;-0.48;78.77;102331.09;5095331;28;20031;-93
2023/02/05 07:09:53;;;;;;;1.85;1.23;;;;;;;-0.43;77.69;102345.63;5078225;28;20501;-92
2023/02/05 07:12:18;;;;;;;8.85;2.47;;;;;;;-0.47;77.08;102333.66;5077958;28;20031;-93
2023/02/05 07:14:44;;;;;;;3.75;2.55;;;;;;;-0.46;78.12;102342.16;5078090;28;20183;-92
2023/02/05 07:17:10;;;;;;;1.63;1.52;;;;;;;-0.44;76.99;102338.81;5077571;28;20023;-92
2023/02/05 07:19:36;;;;;;;1.98;1.83;;;;;;;-0.52;75.39;102340.31;5078053;28;20030;-92
2023/02/05 07:22:01;;;;;;;2.55;1.92;;;;;;;-0.50;74.99;102355.59;5078288;28;20035;-93
2023/02/05 07:24:26;;;;;;;17.42;2.85;;;;;;;-0.48;76.61;102357.38;5077802;28;20031;-92
2023/02/05 07:26:52;;;;;;;2.08;1.60;;;;;;;-0.66;74.69;102354.38;5094881;28;20027;-94
2023/02/05 07:29:17;;;;;;;2.33;1.55;;;;;;;-0.65;75.37;102353.56;5111654;28;20019;-92
2023/02/05 07:31:43;;;;;;;2.55;2.35;;;;;;;-0.72;76.38;102354.22;5094172;28;20040;-93
2023/02/05 07:34:08;;;;;;;2.75;2.42;;;;;;;-0.63;76.42;102357.00;5077809;28;20436;-94
2023/02/05 07:36:34;;;;;;;10.50;2.33;;;;;;;-0.70;76.96;102350.03;5094547;28;20028;-92
2023/02/05 07:38:59;;;;;;;2.38;1.83;;;;;;;-0.66;76.63;102352.69;5077839;28;20088;-92
2023/02/05 07:41:27;;;;;;;2.15;1.67;;;;;;;-0.70;77.19;102344.94;5094700;28;20042;-93
2023/02/05 07:43:53;;;;;;;3.80;3.20;;;;;;;-0.56;76.66;102358.88;5078197;28;21016;-92
2023/02/05 07:46:19;;;;;;;1.42;1.33;;;;;;;-0.69;74.45;102354.28;5077300;28;20035;-92
2023/02/05 07:48:44;;;;;;;3.45;2.35;;;;;;;-0.77;76.28;102345.63;5077714;28;20478;-94
2023/02/05 07:51:28;;;;;;;9.73;2.95;;;;;;;-0.85;76.22;102347.13;5094613;28;20023;-92
2023/02/05 07:53:53;;;;;;;5.45;4.63;;;;;;;-0.71;77.01;102359.34;5077304;28;20505;-93
2023/02/05 07:56:20;;;;;;;2.42;2.08;;;;;;;-0.72;76.44;102354.22;5077203;28;20031;-91
2023/02/05 07:58:46;;;;;;;5.40;2.70;;;;;;;-0.80;75.82;102358.25;5077829;28;20479;-93
2023/02/05 08:01:11;;;;;;;3.28;1.42;;;;;;;-0.99;76.02;102352.69;5076820;28;20114;-92
2023/02/05 08:03:37;;;;;;;1.38;1.13;;;;;;;-1.10;76.50;102358.31;5077229;28;20073;-93
2023/02/05 08:06:04;;;;;;;1.25;0.98;;;;;;;-1.13;76.67;102343.84;5077467;28;20058;-93
2023/02/05 08:08:29;;;;;;;1.45;1.35;;;;;;;-1.06;76.47;102355.06;5077455;28;20039;-94
2023/02/05 08:11:03;;;;;;;5.03;1.70;;;;;;;-0.99;77.29;102342.53;5077340;28;20023;-93
2023/02/05 08:13:28;;;;;;;1.85;1.33;;;;;;;-0.97;78.02;102348.53;5077325;28;20031;-93
2023/02/05 08:15:54;;;;;;;0.82;0.77;;;;;;;-0.91;77.23;102358.84;5077061;28;20024;-93
2023/02/05 08:18:19;;;;;;;1.20;0.85;;;;;;;-0.80;76.50;102363.31;5077318;28;20024;-94
2023/02/05 08:20:45;;;;;;;1.27;1.17;;;;;;;-0.72;76.09;102367.78;5077545;28;20027;-93
2023/02/05 08:23:11;;;;;;;0.98;0.90;;;;;;;-0.91;75.54;102366.44;5077171;28;20043;-94
2023/02/05 08:25:37;;;;;;;2.28;2.10;;;;;;;-0.88;75.69;102365.69;5076929;28;20146;-92
2023/02/05 08:28:03;;;;;;;1.08;0.95;;;;;;;-0.87;76.16;102373.34;5076853;28;20035;-92
2023/02/05 08:30:28;;;;;;;2.60;1.60;;;;;;;-0.87;75.30;102365.72;5076798;28;20024;-93
2023/02/05 08:32:54;;;;;;;2.90;2.10;;;;;;;-0.72;75.72;102360.16;5076829;28;20487;-93
2023/02/05 08:35:19;;;;;;;0.80;0.80;;;;;;;-0.60;75.50;102363.00;5094180;28;20032;-92
2023/02/05 08:37:45;;;;;;;2.45;1.45;;;;;;;-0.59;74.50;102357.13;5076977;28;20543;-92
2023/02/05 08:40:11;;;;;;;3.25;2.78;;;;;;;-0.60;74.04;102352.81;5077035;28;20034;-94
2023/02/05 08:42:36;;;;;;;3.58;2.95;;;;;;;-0.47;72.58;102364.19;5076916;28;20486;-93
2023/02/05 08:45:02;;;;;;;6.65;2.88;;;;;;;-0.35;72.10;102377.19;5076700;28;20024;-93
2023/02/05 08:47:27;;;;;;;2.13;1.38;;;;;;;-0.33;71.34;102369.56;5077084;28;20498;-93
2023/02/05 08:49:53;;;;;;;1.45;1.35;;;;;;;-0.31;72.09;102376.41;5077159;28;20097;-92
2023/02/05 08:52:18;;;;;;;3.78;2.53;;;;;;;-0.22;72.24;102369.81;5077205;28;20049;-93
2023/02/05 08:54:44;;;;;;;2.13;1.83;;;;;;;-0.03;70.67;102372.81;5077258;28;20096;-92
2023/02/05 08:57:10;;;;;;;1.35;1.25;;;;;;;0.13;70.37;102365.53;5076999;28;20034;-92
2023/02/05 08:59:36;;;;;;;2.85;2.65;;;;;;;0.00;68.53;102356.78;5093606;28;20026;-91
2023/02/05 09:02:01;;;;;;;2.40;2.20;;;;;;;0.20;67.56;102373.34;5076901;28;20106;-91
2023/02/05 09:04:27;;;;;;;6.90;3.30;;;;;;;0.39;67.17;102373.72;5093789;28;20386;-91
2023/02/05 09:06:52;;;;;;;3.22;2.90;;;;;;;0.46;66.01;102375.56;5076556;28;20020;-91
2023/02/05 09:09:18;;;;;;;9.60;2.42;;;;;;;0.60;66.05;102381.81;5078753;28;20031;-91
2023/02/05 09:11:45;;;;;;;4.28;2.13;;;;;;;0.37;63.97;102372.81;5114333;27;20054;-91
2023/02/05 09:14:11;;;;;;;4.35;2.53;;;;;;;0.45;64.71;102366.22;5080140;28;20375;-90
2023/02/05 09:16:36;;;;;;;8.30;2.00;;;;;;;0.67;64.30;102388.72;5080279;28;20077;-91
2023/02/05 09:19:01;;;;;;;1.45;1.35;;;;;;;0.65;64.34;102379.34;5097212;28;20031;-91
2023/02/05 09:21:27;;;;;;;4.00;1.35;;;;;;;0.74;62.84;102385.47;5080415;28;20058;-91
2023/02/05 09:23:53;;;;;;;3.10;1.25;;;;;;;0.75;61.98;102394.84;5080167;28;20081;-92
2023/02/05 09:26:19;;;;;;;1.70;1.33;;;;;;;0.78;61.82;102394.88;5113918;27;20051;-91
2023/02/05 09:28:44;;;;;;;1.98;1.35;;;;;;;0.65;61.99;102380.19;5079878;28;20028;-91
2023/02/05 09:31:14;;;;;;;1.92;1.65;;;;;;;0.56;62.40;102383.41;5080123;28;20390;-92
2023/02/05 09:33:40;;;;;;;0.50;0.50;;;;;;;0.56;63.85;102387.66;5080072;28;20623;-92
2023/02/05 09:36:11;;;;;;;6.90;1.27;;;;;;;0.35;63.35;102380.44;5080294;28;20023;-91
2023/02/05 09:38:37;;;;;;;0.95;0.95;;;;;;;0.66;62.75;102394.66;5080838;28;20037;-91
2023/02/05 09:41:07;;;;;;;1.25;0.93;;;;;;;0.74;62.99;102380.38;5079954;28;20031;-91
2023/02/05 09:43:50;;;;;;;3.35;1.67;;;;;;;0.70;63.93;102350.59;5096563;28;20529;-93
2023/02/05 09:46:37;;;;;;;2.00;1.58;;;;;;;1.08;63.23;102396.28;5113901;28;20032;-91
2023/02/05 09:49:17;;;;;;;2.63;1.85;;;;;;;1.09;63.56;102387.84;5113613;28;20028;-92
2023/02/05 09:51:44;;;;;;;2.88;1.77;;;;;;;1.01;61.99;102399.59;5080477;28;20035;-92
2023/02/05 09:54:16;;;;;;;4.38;2.25;;;;;;;0.92;61.75;102404.50;5079832;28;20024;-94
2023/02/05 09:56:42;;;;;;;1.38;1.27;;;;;;;0.82;61.73;102399.22;5114439;28;20039;-92
2023/02/05 09:59:12;;;;;;;0.63;0.60;;;;;;;0.83;62.61;102387.34;5079657;28;20028;-93
2023/02/05 10:02:15;;;;;;;2.60;1.35;;;;;;;0.84;62.76;102394.16;5080071;28;20031;-92
2023/02/05 10:04:41;;;;;;;1.88;1.52;;;;;;;0.84;63.73;102392.47;5076463;28;20043;-92
2023/02/05 10:07:17;;;;;;;1.92;1.40;;;;;;;0.66;62.34;102378.50;5079641;28;20039;-93
2023/02/05 10:10:02;;;;;;;3.58;2.42;;;;;;;1.00;63.16;102395.31;5113292;28;20059;-93
2023/02/05 10:13:06;;;;;;;10.27;4.50;;;;;;;0.88;62.02;102395.94;5095952;28;20068;-92
2023/02/05 10:15:55;;;;;;;1.02;0.98;;;;;;;0.85;62.24;102394.19;5086823;28;20176;-91
2023/02/05 10:18:44;;;;;;;4.95;3.05;;;;;;;0.91;62.97;102393.47;5113323;28;20019;-91
2023/02/05 10:21:16;;;;;;;2.17;1.63;;;;;;;0.78;62.07;102379.59;5096155;28;20026;-91
2023/02/05 10:23:45;;;;;;;7.38;2.97;;;;;;;0.86;62.92;102383.16;5095937;28;20031;-92
2023/02/05 10:26:12;;;;;;;9.85;2.60;;;;;;;0.88;61.81;102382.31;5095629;28;20028;-90
2023/02/05 10:28:50;;;;;;;12.75;4.25;;;;;;;0.99;63.38;102396.16;5078815;28;20035;-90
2023/02/05 10:31:31;;;;;;;6.78;3.47;;;;;;;0.86;61.26;102380.63;5112646;28;20028;-90
2023/02/05 10:34:12;;;;;;;10.52;3.45;;;;;;;0.97;61.86;102388.44;5112577;28;20032;-91
2023/02/05 10:36:38;;;;;;;4.88;1.13;;;;;;;0.94;61.29;102377.34;5096906;28;20028;-90
2023/02/05 10:39:09;;;;;;;2.08;1.75;;;;;;;0.92;62.34;102384.13;5078708;28;20034;-91
2023/02/05 10:41:39;;;;;;;6.40;2.17;;;;;;;0.91;61.53;102385.81;5079103;28;20055;-91
2023/02/05 10:44:22;;;;;;;3.13;2.83;;;;;;;0.98;63.51;102391.84;5078621;28;20034;-91
2023/02/05 10:46:50;;;;;;;3.22;2.35;;;;;;;0.93;61.46;102386.69;5095754;28;20180;-91
2023/02/05 10:49:47;;;;;;;1.35;1.25;;;;;;;0.99;61.27;102386.81;5079963;28;20051;-91
2023/02/05 10:52:13;;;;;;;2.15;1.95;;;;;;;0.92;61.64;102384.97;5095742;28;20128;-90
2023/02/05 10:54:39;;;;;;;1.95;1.75;;;;;;;0.97;62.55;102383.34;5077927;28;20028;-90
2023/02/05 10:57:13;;;;;;;4.70;1.98;;;;;;;0.78;61.48;102377.06;5078486;28;20032;-90
2023/02/05 10:59:53;;;;;;;0.95;0.90;;;;;;;0.89;60.93;102376.44;5078608;28;20122;-91
2023/02/05 11:02:18;;;;;;;2.75;1.38;;;;;;;0.94;61.11;102369.72;5096442;28;20410;-90
2023/02/05 11:04:55;;;;;;;4.82;1.90;;;;;;;0.94;61.74;102372.25;5094949;28;20080;-91
2023/02/05 11:07:27;;;;;;;2.45;2.25;;;;;;;0.93;60.34;102350.16;5079256;28;20039;-90
2023/02/05 11:09:52;;;;;;;0.77;0.77;;;;;;;0.86;62.03;102375.50;5077726;28;20032;-90
2023/02/05 11:12:28;;;;;;;2.67;1.75;;;;;;;0.89;60.20;102356.03;5077709;28;20028;-90
2023/02/05 11:14:56;;;;;;;2.42;1.75;;;;;;;1.01;60.53;102359.66;5077705;28;20023;-90
2023/02/05 11:17:23;;;;;;;1.27;1.17;;;;;;;0.88;62.14;102347.50;5077804;28;20028;-90
2023/02/05 11:20:05;;;;;;;1.55;1.08;;;;;;;0.88;61.43;102361.94;5077899;28;20028;-90
2023/02/05 11:22:34;;;;;;;0.47;0.30;;;;;;;0.70;61.21;102368.44;5078399;28;20024;-89
2023/02/05 11:25:19;;;;;;;1.98;1.30;;;;;;;0.75;59.21;102360.88;5094545;28;20063;-88
2023/02/05 11:28:02;;;;;;;5.75;2.78;;;;;;;0.84;62.50;102379.72;5094583;28;20054;-90
2023/02/05 11:30:30;;;;;;;8.05;3.47;;;;;;;0.71;61.09;102380.34;5077026;28;20085;-89
2023/02/05 11:32:56;;;;;;;2.38;2.05;;;;;;;0.60;62.48;102371.63;5110265;28;20104;-89
2023/02/05 11:35:24;;;;;;;2.30;1.85;;;;;;;0.49;63.66;102357.78;5110860;28;20027;-90
2023/02/05 11:38:00;;;;;;;5.40;2.33;;;;;;;0.33;62.59;102346.47;5077392;28;20035;-90
2023/02/05 11:40:27;;;;;;;8.32;3.42;;;;;;;0.51;61.79;102344.28;5095089;28;20028;-90
2023/02/05 11:43:26;;;;;;;0.90;0.90;;;;;;;0.58;63.02;102332.50;5093831;28;20031;-89
2023/02/05 11:45:52;;;;;;;1.50;1.40;;;;;;;0.56;61.90;102350.31;5060718;28;20126;-90
2023/02/05 11:48:31;;;;;;;0.95;0.60;;;;;;;0.45;61.27;102358.56;5077879;28;20067;-95
2023/02/05 11:50:57;;;;;;;5.38;2.28;;;;;;;0.56;63.13;102345.22;5111619;28;20042;-95
2023/02/05 11:53:23;;;;;;;3.20;1.88;;;;;;;0.70;62.17;102331.91;5077518;28;20477;-94
2023/02/05 11:55:53;;;;;;;5.57;1.85;;;;;;;0.63;60.73;102345.34;5077730;28;20028;-95
2023/02/05 11:58:23;;;;;;;2.17;1.98;;;;;;;0.43;61.48;102281.31;5077867;28;20115;-94
2023/02/05 12:00:57;;;;;;;4.88;2.88;;;;;;;0.94;60.03;102328.94;5094294;28;20122;-95
2023/02/05 12:03:28;;;;;;;3.13;1.67;;;;;;;0.83;60.51;102328.75;5077539;28;20020;-95
2023/02/05 12:06:04;;;;;;;4.07;2.33;;;;;;;0.82;61.95;102333.00;5078302;28;20062;-95
2023/02/05 12:08:30;;;;;;;1.23;1.13;;;;;;;0.85;61.09;102335.59;5112586;27;20031;-94
2023/02/05 12:11:17;;;;;;;1.20;1.10;;;;;;;0.88;62.14;102326.28;5111094;28;20407;-95
2023/02/05 12:14:24;;;;;;;3.92;2.47;;;;;;;0.70;59.98;102312.38;5096420;28;20023;-91
2023/02/05 12:16:50;;;;;;;3.88;2.08;;;;;;;0.84;61.30;102341.50;5076864;28;20036;-91
2023/02/05 12:19:19;;;;;;;2.40;1.60;;;;;;;0.77;61.52;102334.56;5110841;28;20023;-90
2023/02/05 12:21:59;;;;;;;4.45;1.55;;;;;;;0.77;60.82;102329.47;5093965;28;20081;-92
2023/02/05 12:24:36;;;;;;;7.00;3.13;;;;;;;0.75;60.89;102323.50;5094002;28;20015;-91
2023/02/05 12:27:07;;;;;;;9.48;2.40;;;;;;;0.75;61.66;102331.16;5110873;28;20035;-90
2023/02/05 12:29:46;;;;;;;6.05;2.85;;;;;;;0.76;60.68;102343.06;5077389;28;20027;-90
2023/02/05 12:32:44;;;;;;;4.15;2.22;;;;;;;0.71;63.10;102338.72;5110407;28;20055;-92
2023/02/05 12:35:19;;;;;;;2.38;1.80;;;;;;;0.71;62.45;102331.06;5087770;28;20035;-90
2023/02/05 12:38:15;;;;;;;4.35;3.42;;;;;;;0.96;64.09;102325.56;5093820;28;20458;-95
2023/02/05 12:40:46;;;;;;;4.05;2.05;;;;;;;1.06;62.37;102331.69;5078525;28;20032;-91
2023/02/05 12:43:33;;;;;;;15.63;3.58;;;;;;;0.96;61.29;102340.00;5111108;28;20057;-91
2023/02/05 12:46:04;;;;;;;8.25;4.32;;;;;;;0.85;61.52;102333.03;5114926;28;20016;-91
2023/02/05 12:48:45;;;;;;;6.85;4.50;;;;;;;0.50;63.43;102283.16;5114664;28;20973;-91
2023/02/05 12:51:29;;;;;;;1.63;1.52;;;;;;;0.55;63.97;102287.47;5114422;28;20084;-91
2023/02/05 12:54:03;;;;;;;1.67;1.58;;;;;;;0.63;63.32;102332.63;5114835;28;20031;-92
2023/02/05 12:56:45;;;;;;;3.10;2.80;;;;;;;0.67;64.99;102329.28;5114696;28;20024;-92
2023/02/05 12:59:38;;;;;;;2.08;0.85;;;;;;;0.46;64.38;102337.38;5097708;28;20040;-93
2023/02/05 13:02:05;;;;;;;1.70;1.60;;;;;;;0.37;64.96;102316.81;5097493;28;20032;-91
2023/02/05 13:04:50;;;;;;;28.40;12.60;;;;;;;0.39;64.35;102330.44;5097439;28;20042;-92
2023/02/05 13:07:31;;;;;;;10.70;3.05;;;;;;;0.40;65.69;102344.91;5115274;27;20049;-91
2023/02/05 13:10:30;;;;;;;2.08;1.67;;;;;;;0.33;64.62;102321.00;5080834;28;20027;-91
2023/02/05 13:13:01;;;;;;;3.22;2.67;;;;;;;0.34;64.27;102337.13;5082053;28;20516;-91
2023/02/05 13:15:34;;;;;;;6.13;4.07;;;;;;;0.31;63.97;102337.94;5080566;28;20036;-91
2023/02/05 13:18:06;;;;;;;6.93;3.63;;;;;;;0.35;63.92;102338.84;5080701;28;20562;-91
2023/02/05 13:28:54;;;;;;;2.35;2.15;;;;;;;0.11;64.04;102304.44;5097715;28;20501;-91
2023/02/05 13:31:20;;;;;;;2.88;2.38;;;;;;;0.35;64.78;102324.44;5080604;28;20023;-91
2023/02/05 13:33:45;;;;;;;6.28;4.75;;;;;;;0.23;63.42;102330.13;5113796;28;20514;-92
2023/02/05 13:36:23;;;;;;;7.60;3.70;;;;;;;0.30;63.67;102320.09;5079707;28;20403;-92
2023/02/05 13:38:54;;;;;;;3.35;2.90;;;;;;;0.48;64.60;102335.72;5113888;28;20028;-92
2023/02/05 13:41:32;;;;;;;4.30;3.35;;;;;;;0.43;63.58;102322.91;5113820;28;20553;-91
2023/02/05 13:44:03;;;;;;;14.13;6.35;;;;;;;0.52;64.18;102337.50;5113698;28;20185;-91
2023/02/05 13:46:45;;;;;;;2.40;2.20;;;;;;;0.54;64.05;102336.69;5113787;28;20022;-92
2023/02/05 13:49:40;;;;;;;3.05;1.90;;;;;;;0.47;63.91;102328.91;5098250;28;20144;-91
2023/02/05 13:52:11;;;;;;;1.80;1.55;;;;;;;0.24;63.69;102285.19;5113603;28;20028;-92
2023/02/05 13:54:37;;;;;;;3.90;2.17;;;;;;;0.25;62.81;102313.19;5113158;28;20091;-91
2023/02/05 13:57:36;;;;;;;5.38;1.77;;;;;;;0.39;63.97;102330.44;5113429;28;20051;-91
2023/02/05 14:00:03;;;;;;;10.35;5.07;;;;;;;0.36;63.11;102333.78;5114506;28;20085;-91
2023/02/05 14:02:37;;;;;;;7.25;5.15;;;;;;;0.10;62.92;102287.44;5079868;28;20024;-91
2023/02/05 14:05:03;;;;;;;10.93;2.63;;;;;;;0.44;63.67;102331.41;5113165;28;20024;-92
2023/02/05 14:07:34;;;;;;;7.72;6.00;;;;;;;0.35;62.98;102323.56;5079377;28;20028;-92
2023/02/05 14:10:01;;;;;;;15.85;6.00;;;;;;;0.46;63.19;102327.19;5079744;28;20027;-92
2023/02/05 14:12:31;;;;;;;11.60;6.47;;;;;;;0.30;63.49;102309.91;5079589;28;20081;-91
2023/02/05 14:15:15;;;;;;;5.38;4.00;;;;;;;0.54;64.07;102338.38;5079884;28;20027;-91
2023/02/05 14:17:43;;;;;;;8.95;4.95;;;;;;;0.52;63.24;102332.41;5112774;28;20023;-91
2023/02/05 14:20:24;;;;;;;14.50;6.05;;;;;;;0.41;63.42;102319.47;5113008;28;20023;-92
2023/02/05 14:22:53;;;;;;;27.10;11.82;;;;;;;0.45;61.63;102325.47;5112983;28;20035;-92
2023/02/05 14:25:34;;;;;;;12.18;6.43;;;;;;;0.46;61.60;102330.59;5113846;27;20030;-91
2023/02/05 14:28:29;;;;;;;4.82;4.20;;;;;;;0.57;62.64;102325.69;5112820;28;20558;-92
2023/02/05 14:30:57;;;;;;;5.93;3.92;;;;;;;0.56;62.11;102318.91;5108000;28;20043;-91
2023/02/05 14:33:40;;;;;;;8.00;3.88;;;;;;;0.66;61.42;102332.66;5078838;28;20051;-91
2023/02/05 14:36:19;;;;;;;4.18;2.92;;;;;;;0.65;62.28;102319.06;5079999;28;20028;-92
2023/02/05 14:38:54;;;;;;;10.60;5.90;;;;;;;0.70;61.27;102320.03;5112769;28;20557;-92
2023/02/05 14:41:22;;;;;;;8.30;4.53;;;;;;;0.49;60.03;102296.69;5079143;28;20023;-92
2023/02/05 14:43:59;;;;;;;8.02;4.70;;;;;;;0.59;61.11;102313.88;5095886;28;20036;-92
2023/02/05 14:46:29;;;;;;;10.70;6.47;;;;;;;0.73;61.84;102314.97;5079321;28;20092;-92
2023/02/05 14:48:57;;;;;;;7.38;5.68;;;;;;;0.74;61.29;102313.28;5095483;28;20103;-91
2023/02/05 14:51:39;;;;;;;8.55;5.55;;;;;;;0.70;59.89;102299.66;5079149;28;20019;-91
2023/02/05 14:54:13;;;;;;;7.00;5.18;;;;;;;0.59;60.18;102273.13;5078580;28;20031;-91
2023/02/05 14:56:40;;;;;;;5.90;5.30;;;;;;;0.70;60.64;102294.56;5112263;28;20091;-91
2023/02/05 14:59:32;;;;;;;15.35;3.88;;;;;;;0.84;59.40;102308.38;5095227;28;20027;-92
2023/02/05 15:01:58;;;;;;;7.73;6.03;;;;;;;0.82;60.63;102299.00;5097544;28;20088;-91
2023/02/05 15:04:39;;;;;;;13.07;5.03;;;;;;;0.85;59.65;102312.66;5078435;28;20031;-92
2023/02/05 15:07:13;;;;;;;12.57;7.38;;;;;;;0.90;59.41;102301.69;5094595;28;20110;-92
2023/02/05 15:10:03;;;;;;;15.38;8.00;;;;;;;0.75;59.61;102282.75;5078724;28;20023;-91
2023/02/05 15:12:40;;;;;;;11.13;6.65;;;;;;;0.99;59.70;102320.56;5094946;28;20027;-91
2023/02/05 15:15:31;;;;;;;8.68;5.93;;;;;;;1.01;59.39;102315.47;5111878;28;20486;-91
2023/02/05 15:18:27;;;;;;;9.55;5.28;;;;;;;1.06;58.02;102317.25;5079198;28;20038;-91
2023/02/05 15:20:55;;;;;;;9.18;5.57;;;;;;;1.10;58.72;102320.75;5094952;28;20027;-90
2023/02/05 15:23:20;;;;;;;5.50;3.55;;;;;;;0.99;56.76;102322.25;5078288;28;20038;-91
2023/02/05 15:25:55;;;;;;;4.75;2.78;;;;;;;0.83;56.03;102306.69;5111534;28;20028;-91
2023/02/05 15:28:25;;;;;;;4.05;2.13;;;;;;;0.96;56.22;102327.28;5111694;28;20051;-91
2023/02/05 15:31:10;;;;;;;4.90;4.28;;;;;;;0.96;56.42;102324.72;5094547;28;20085;-90
2023/02/05 15:33:47;;;;;;;14.65;5.38;;;;;;;0.90;56.82;102314.44;5110185;28;20506;-91
2023/02/05 15:36:40;;;;;;;13.38;4.88;;;;;;;0.95;56.24;102328.09;5078177;28;20019;-91
2023/02/05 15:39:08;;;;;;;;;;;;;;;0.93;54.89;102320.44;5094891;28;20157;-92
2023/02/05 15:41:34;;;;;;;12.43;5.43;;;;;;;0.82;57.22;102322.78;5094506;28;19934;-91
2023/02/05 15:44:00;;;;;;;9.10;5.32;;;;;;;0.80;56.68;102318.50;5077770;28;20436;-91
2023/02/05 15:46:26;;;;;;;15.32;6.95;;;;;;;0.77;56.15;102311.66;5077459;28;20063;-91
2023/02/05 15:48:52;;;;;;;5.63;3.13;;;;;;;0.82;55.18;102321.94;5094583;28;20019;-91
2023/02/05 15:51:26;;;;;;;14.25;7.30;;;;;;;0.79;55.55;102321.91;5094500;28;20478;-92
2023/02/05 15:53:53;;;;;;;7.60;3.38;;;;;;;0.54;56.26;102279.81;5112373;27;20711;-91
2023/02/05 15:56:19;;;;;;;7.63;4.35;;;;;;;0.78;55.66;102328.66;5077754;28;20027;-91
2023/02/05 15:59:00;;;;;;;10.82;4.07;;;;;;;0.81;57.20;102328.72;5111024;28;20482;-92
2023/02/05 16:01:27;;;;;;;2.63;2.03;;;;;;;0.80;56.47;102328.69;5111085;28;20024;-92
2023/02/05 16:03:52;;;;;;;14.23;3.30;;;;;;;0.75;57.26;102325.19;5094170;28;20034;-92
2023/02/05 16:06:22;;;;;;;6.35;2.58;;;;;;;0.54;56.56;102300.19;5077391;28;20035;-91
2023/02/05 16:08:48;;;;;;;4.20;3.03;;;;;;;0.65;54.73;102334.34;5077595;28;20023;-91
2023/02/05 16:11:24;;;;;;;3.67;2.97;;;;;;;0.73;54.48;102330.28;5077267;28;20031;-92
2023/02/05 16:14:04;;;;;;;12.00;2.92;;;;;;;0.66;54.37;102341.16;5093894;28;20062;-92
2023/02/05 16:16:30;;;;;;;2.67;2.42;;;;;;;0.59;54.39;102344.44;5077746;28;20023;-92
2023/02/05 16:18:57;;;;;;;13.40;3.13;;;;;;;0.34;55.68;102314.22;5077320;28;20085;-91
2023/02/05 16:21:32;;;;;;;3.75;3.13;;;;;;;0.58;54.83;102363.06;5093849;28;20027;-92
2023/02/05 16:24:02;;;;;;;5.55;3.35;;;;;;;0.46;54.87;102360.28;5093996;28;20118;-92
2023/02/05 16:26:45;;;;;;;3.53;2.28;;;;;;;0.46;55.50;102358.59;5077520;28;20035;-92
2023/02/05 16:29:42;;;;;;;2.30;1.75;;;;;;;0.41;54.84;102355.13;5078240;28;20508;-92
2023/02/05 16:32:35;;;;;;;3.60;2.58;;;;;;;0.41;55.52;102367.00;5078273;28;20051;-91
2023/02/05 16:35:01;;;;;;;4.40;2.20;;;;;;;0.46;56.77;102378.97;5108150;28;20035;-92